Time;durP1;ratioP1;P1;durP2;ratioP2;P2;SDS_P1;SDS_P2;PMS_P1;PMS_P2;Temp;Humidity;BMP_temperature;BMP_pressure;BME280_temperature;BME280_humidity;BME280_pressure;Samples;Min_cycle;Max_cycle;Signal;HPM_P1;HPM_P2
2022/08/09 00:00:20;;;;;;;3.95;1.20;;;;;;;;;;5074561;28;20211;-40
2022/08/09 00:03:04;;;;;;;7.32;1.67;;;;;;;;;;5075409;28;20264;-39
2022/08/09 00:05:51;;;;;;;4.85;1.40;;;;;;;;;;5074778;28;20242;-39
2022/08/09 00:08:38;;;;;;;6.32;1.30;;;;;;;;;;5075528;28;20223;-39
2022/08/09 00:11:07;;;;;;;2.50;1.33;;;;;;;;;;5074910;28;20276;-40
2022/08/09 00:13:51;;;;;;;5.57;1.30;;;;;;;;;;5075215;28;20207;-39
2022/08/09 00:16:18;;;;;;;1.58;0.95;;;;;;;;;;5075036;28;20207;-41
2022/08/09 00:19:03;;;;;;;1.05;0.82;;;;;;;;;;5074909;28;20203;-39
2022/08/09 00:21:37;;;;;;;3.90;1.50;;;;;;;;;;5074893;28;20578;-39
2022/08/09 00:24:21;;;;;;;3.60;1.30;;;;;;;;;;5071776;28;20494;-39
2022/08/09 00:26:50;;;;;;;1.67;1.10;;;;;;;;;;5072310;28;20296;-39
2022/08/09 00:29:18;;;;;;;6.30;1.48;;;;;;;;;;5074107;28;20592;-38
2022/08/09 00:32:05;;;;;;;1.75;1.25;;;;;;;;;;5074522;28;20248;-39
2022/08/09 00:34:32;;;;;;;4.25;1.20;;;;;;;;;;5074461;28;20218;-41
2022/08/09 00:36:59;;;;;;;4.97;1.50;;;;;;;;;;5074323;28;20245;-39
2022/08/09 00:39:27;;;;;;;3.50;1.30;;;;;;;;;;5073818;28;20605;-40
2022/08/09 00:42:14;;;;;;;3.30;1.27;;;;;;;;;;5074221;28;20200;-41
2022/08/09 00:45:03;;;;;;;5.82;1.60;;;;;;;;;;5074695;28;20568;-39
2022/08/09 00:47:42;;;;;;;4.30;1.27;;;;;;;;;;5074235;28;20233;-39
2022/08/09 00:50:11;;;;;;;4.45;1.35;;;;;;;;;;5074393;28;20230;-39
2022/08/09 00:52:40;;;;;;;2.67;1.20;;;;;;;;;;5074186;28;20233;-39
2022/08/09 00:55:08;;;;;;;2.30;1.30;;;;;;;;;;5074306;28;20195;-39
2022/08/09 00:57:55;;;;;;;8.07;1.65;;;;;;;;;;5073814;28;20204;-39
2022/08/09 01:00:25;;;;;;;6.80;1.60;;;;;;;;;;5074808;28;20221;-40
2022/08/09 01:02:58;;;;;;;5.35;1.60;;;;;;;;;;5074302;28;20531;-42
2022/08/09 01:05:44;;;;;;;2.00;1.25;;;;;;;;;;5074537;28;20242;-40
2022/08/09 01:08:39;;;;;;;3.92;1.73;;;;;;;;;;5073267;28;20188;-40
2022/08/09 01:11:32;;;;;;;8.85;1.50;;;;;;;;;;5074631;28;20288;-40
2022/08/09 01:14:23;;;;;;;4.60;1.38;;;;;;;;;;5077751;28;20650;-39
2022/08/09 01:17:00;;;;;;;6.90;1.60;;;;;;;;;;5077397;28;20211;-39
2022/08/09 01:19:38;;;;;;;2.67;1.38;;;;;;;;;;5074727;28;20813;-40
2022/08/09 01:22:18;;;;;;;6.63;1.85;;;;;;;;;;5078287;28;20208;-39
2022/08/09 01:25:06;;;;;;;6.55;1.67;;;;;;;;;;5077252;28;20203;-39
2022/08/09 01:27:38;;;;;;;3.17;1.58;;;;;;;;;;5078406;28;20203;-41
2022/08/09 01:30:08;;;;;;;4.93;2.00;;;;;;;;;;5077937;28;20223;-39
2022/08/09 01:32:56;;;;;;;4.35;1.98;;;;;;;;;;5077566;28;20582;-39
2022/08/09 01:35:30;;;;;;;7.88;2.10;;;;;;;;;;5077020;28;20622;-43
2022/08/09 01:38:13;;;;;;;6.35;2.20;;;;;;;;;;5077389;28;20513;-39
2022/08/09 01:40:46;;;;;;;5.70;1.90;;;;;;;;;;5077911;28;20215;-38
2022/08/09 01:43:20;;;;;;;4.25;2.10;;;;;;;;;;5076276;28;20191;-39
2022/08/09 01:45:52;;;;;;;6.03;2.47;;;;;;;;;;5078336;28;20195;-39
2022/08/09 01:48:24;;;;;;;3.13;1.48;;;;;;;;;;5076422;28;20252;-40
2022/08/09 01:50:57;;;;;;;1.95;1.45;;;;;;;;;;5077521;28;20225;-39
2022/08/09 01:53:25;;;;;;;5.43;1.70;;;;;;;;;;5077211;28;20207;-40
2022/08/09 01:55:56;;;;;;;5.95;1.95;;;;;;;;;;5076341;28;20199;-39
2022/08/09 01:58:25;;;;;;;4.13;1.95;;;;;;;;;;5077627;28;20211;-39
2022/08/09 02:00:55;;;;;;;6.03;1.98;;;;;;;;;;5076360;28;20566;-40
2022/08/09 02:03:22;;;;;;;3.78;1.90;;;;;;;;;;5076586;28;20203;-39
2022/08/09 02:05:51;;;;;;;3.03;1.33;;;;;;;;;;5076311;28;20235;-40
2022/08/09 02:08:36;;;;;;;4.60;1.88;;;;;;;;;;5076470;28;20207;-39
2022/08/09 02:11:27;;;;;;;10.13;2.80;;;;;;;;;;5076263;28;20356;-39
2022/08/09 02:14:11;;;;;;;6.68;1.88;;;;;;;;;;5077117;28;20211;-39
2022/08/09 02:16:53;;;;;;;3.33;1.55;;;;;;;;;;5071485;28;20195;-39
2022/08/09 02:19:41;;;;;;;2.72;1.65;;;;;;;;;;5075937;28;20203;-39
2022/08/09 02:22:15;;;;;;;4.45;1.90;;;;;;;;;;5076362;28;20211;-39
2022/08/09 02:24:49;;;;;;;3.88;2.00;;;;;;;;;;5076158;28;20202;-39
2022/08/09 02:27:19;;;;;;;4.18;2.03;;;;;;;;;;5076995;28;20196;-39
2022/08/09 02:30:07;;;;;;;5.20;2.03;;;;;;;;;;5076846;28;20215;-39
2022/08/09 02:32:40;;;;;;;3.47;1.80;;;;;;;;;;5075414;28;20196;-39
2022/08/09 02:35:13;;;;;;;6.68;1.90;;;;;;;;;;5076331;28;20226;-40
2022/08/09 02:37:46;;;;;;;5.00;1.90;;;;;;;;;;5076973;28;20176;-39
2022/08/09 02:40:17;;;;;;;3.13;1.52;;;;;;;;;;5075866;28;20215;-39
2022/08/09 02:42:57;;;;;;;4.47;1.50;;;;;;;;;;5076461;28;20192;-39
2022/08/09 02:45:29;;;;;;;4.47;1.95;;;;;;;;;;5074817;28;20544;-40
2022/08/09 02:48:02;;;;;;;4.47;1.95;;;;;;;;;;5075425;28;20199;-39
2022/08/09 02:50:34;;;;;;;5.68;1.70;;;;;;;;;;5075500;28;20300;-39
2022/08/09 02:53:04;;;;;;;3.05;1.50;;;;;;;;;;5075046;28;20200;-39
2022/08/09 02:55:33;;;;;;;3.00;1.48;;;;;;;;;;5075300;28;20211;-39
2022/08/09 02:58:21;;;;;;;5.15;1.55;;;;;;;;;;5075293;28;20661;-39
2022/08/09 03:01:04;;;;;;;3.28;1.92;;;;;;;;;;5074880;28;20215;-39
2022/08/09 03:03:38;;;;;;;6.13;1.75;;;;;;;;;;5075279;28;20191;-39
2022/08/09 03:06:26;;;;;;;6.35;2.00;;;;;;;;;;5075440;28;20264;-42
2022/08/09 03:08:55;;;;;;;5.68;2.08;;;;;;;;;;5074954;28;20251;-42
2022/08/09 03:11:22;;;;;;;8.63;1.95;;;;;;;;;;5070037;28;20304;-39
2022/08/09 03:14:11;;;;;;;5.18;1.98;;;;;;;;;;5075152;28;20192;-39
2022/08/09 03:16:38;;;;;;;3.38;1.83;;;;;;;;;;5073974;28;20257;-39
2022/08/09 03:19:11;;;;;;;5.85;2.05;;;;;;;;;;5075049;28;20214;-39
2022/08/09 03:21:43;;;;;;;4.88;1.83;;;;;;;;;;5074091;28;20215;-42
2022/08/09 03:24:17;;;;;;;5.22;1.80;;;;;;;;;;5073976;28;20194;-40
2022/08/09 03:27:08;;;;;;;3.67;1.83;;;;;;;;;;5074713;28;20223;-41
2022/08/09 03:29:37;;;;;;;4.57;1.83;;;;;;;;;;5075059;28;20211;-41
2022/08/09 03:32:24;;;;;;;2.55;1.60;;;;;;;;;;5074361;28;20226;-39
2022/08/09 03:34:52;;;;;;;7.13;1.67;;;;;;;;;;5073040;28;20203;-39
2022/08/09 03:37:21;;;;;;;4.97;1.95;;;;;;;;;;5074142;28;20210;-41
2022/08/09 03:40:09;;;;;;;3.30;1.67;;;;;;;;;;5074390;28;20211;-39
2022/08/09 03:42:39;;;;;;;2.22;1.75;;;;;;;;;;5075001;28;20222;-39
2022/08/09 03:45:09;;;;;;;4.03;1.83;;;;;;;;;;5074946;28;20238;-39
2022/08/09 03:47:36;;;;;;;6.22;2.55;;;;;;;;;;5074700;28;20207;-39
2022/08/09 03:50:11;;;;;;;5.93;1.75;;;;;;;;;;5074773;28;20223;-39
2022/08/09 03:52:41;;;;;;;5.78;2.35;;;;;;;;;;5073980;28;20692;-39
2022/08/09 03:55:09;;;;;;;3.13;1.98;;;;;;;;;;5074581;28;20209;-39
2022/08/09 03:57:40;;;;;;;3.50;2.17;;;;;;;;;;5074120;28;20208;-39
2022/08/09 04:00:19;;;;;;;4.40;2.17;;;;;;;;;;5074949;28;20234;-39
2022/08/09 04:02:49;;;;;;;5.75;2.70;;;;;;;;;;5075366;28;20222;-39
2022/08/09 04:05:19;;;;;;;4.32;2.42;;;;;;;;;;5070383;28;20576;-40
2022/08/09 04:07:54;;;;;;;4.65;2.72;;;;;;;;;;5072584;28;20553;-39
2022/08/09 04:10:24;;;;;;;10.07;2.47;;;;;;;;;;5074882;28;20214;-39
2022/08/09 04:12:59;;;;;;;7.45;2.08;;;;;;;;;;5074379;28;20203;-39
2022/08/09 04:15:30;;;;;;;5.45;2.63;;;;;;;;;;5074469;28;20203;-39
2022/08/09 04:18:18;;;;;;;7.15;2.67;;;;;;;;;;5074198;28;20309;-39
2022/08/09 04:20:48;;;;;;;5.45;2.75;;;;;;;;;;5074753;28;20229;-39
2022/08/09 04:23:15;;;;;;;3.47;2.53;;;;;;;;;;5074398;28;20207;-40
2022/08/09 04:25:44;;;;;;;6.70;3.40;;;;;;;;;;5074693;28;20204;-39
2022/08/09 04:28:21;;;;;;;6.20;3.17;;;;;;;;;;5074398;28;20218;-41
2022/08/09 04:30:59;;;;;;;5.97;3.25;;;;;;;;;;5075036;28;20223;-39
2022/08/09 04:33:33;;;;;;;5.10;3.17;;;;;;;;;;5074168;28;20203;-41
2022/08/09 04:36:29;;;;;;;4.72;2.97;;;;;;;;;;5074792;28;20203;-39
2022/08/09 04:38:59;;;;;;;8.10;3.53;;;;;;;;;;5074487;28;20256;-38
2022/08/09 04:41:27;;;;;;;4.72;3.08;;;;;;;;;;5074726;28;20226;-39
2022/08/09 04:44:01;;;;;;;4.60;3.45;;;;;;;;;;5074546;28;20618;-38
2022/08/09 04:46:36;;;;;;;10.02;3.75;;;;;;;;;;5074413;28;20210;-38
2022/08/09 04:49:23;;;;;;;9.07;3.83;;;;;;;;;;5074098;28;20222;-39
2022/08/09 04:52:11;;;;;;;7.55;3.50;;;;;;;;;;5074167;28;20529;-42
2022/08/09 04:54:51;;;;;;;8.38;3.03;;;;;;;;;;5074857;28;20210;-39
2022/08/09 04:57:19;;;;;;;5.80;3.38;;;;;;;;;;5074835;28;20200;-39
2022/08/09 04:59:51;;;;;;;6.38;3.05;;;;;;;;;;5074755;28;20232;-39
2022/08/09 05:02:18;;;;;;;6.68;3.30;;;;;;;;;;5068507;28;20219;-40
2022/08/09 05:04:46;;;;;;;6.78;2.80;;;;;;;;;;5074044;28;20226;-39
2022/08/09 05:07:13;;;;;;;4.40;2.78;;;;;;;;;;5074037;28;20272;-42
2022/08/09 05:09:46;;;;;;;3.95;2.70;;;;;;;;;;5074511;28;20261;-40
2022/08/09 05:12:16;;;;;;;6.47;3.08;;;;;;;;;;5074367;28;20258;-41
2022/08/09 05:14:44;;;;;;;5.25;2.95;;;;;;;;;;5073937;28;20203;-38
2022/08/09 05:17:11;;;;;;;4.28;2.92;;;;;;;;;;5074134;28;20191;-42
2022/08/09 05:19:58;;;;;;;7.13;3.00;;;;;;;;;;5073579;28;20210;-42
2022/08/09 05:22:25;;;;;;;3.72;2.72;;;;;;;;;;5082231;28;20266;-42
2022/08/09 05:25:13;;;;;;;7.60;3.00;;;;;;;;;;5082951;28;20187;-42
2022/08/09 05:27:41;;;;;;;3.45;2.60;;;;;;;;;;5082212;28;20203;-39
2022/08/09 05:30:14;;;;;;;5.03;2.80;;;;;;;;;;5077730;28;20567;-42
2022/08/09 05:32:44;;;;;;;9.25;3.22;;;;;;;;;;5081210;28;20261;-42
2022/08/09 05:35:17;;;;;;;6.28;3.13;;;;;;;;;;5073434;28;20646;-40
2022/08/09 05:37:49;;;;;;;7.18;2.88;;;;;;;;;;5081814;28;20227;-43
2022/08/09 05:40:17;;;;;;;5.47;3.05;;;;;;;;;;5080267;28;20271;-41
2022/08/09 05:42:45;;;;;;;8.13;3.03;;;;;;;;;;5080991;28;20227;-41
2022/08/09 05:45:12;;;;;;;5.80;2.60;;;;;;;;;;5071275;28;20289;-40
2022/08/09 05:47:41;;;;;;;6.72;2.83;;;;;;;;;;5073472;28;20219;-43
2022/08/09 05:50:22;;;;;;;4.05;2.53;;;;;;;;;;5071953;28;20223;-44
2022/08/09 05:53:10;;;;;;;8.75;3.40;;;;;;;;;;5078444;28;20218;-41
2022/08/09 05:55:58;;;;;;;5.28;2.95;;;;;;;;;;5075247;28;20246;-39
2022/08/09 05:58:25;;;;;;;5.68;2.45;;;;;;;;;;5078476;28;20223;-44
2022/08/09 06:00:52;;;;;;;5.20;2.63;;;;;;;;;;5076480;28;20310;-41
2022/08/09 06:03:20;;;;;;;5.32;2.28;;;;;;;;;;5081283;28;20242;-40
2022/08/09 06:05:48;;;;;;;6.75;2.30;;;;;;;;;;5086369;28;20281;-42
2022/08/09 06:08:30;;;;;;;4.35;2.42;;;;;;;;;;5086635;28;20267;-40
2022/08/09 06:10:58;;;;;;;6.57;1.98;;;;;;;;;;5080506;28;20227;-42
2022/08/09 06:13:25;;;;;;;10.00;2.40;;;;;;;;;;5078560;28;20234;-45
2022/08/09 06:16:03;;;;;;;12.57;2.50;;;;;;;;;;5075503;28;20227;-42
2022/08/09 06:18:32;;;;;;;9.38;2.30;;;;;;;;;;5082076;28;20218;-42
2022/08/09 06:21:00;;;;;;;8.02;3.08;;;;;;;;;;5085529;28;20310;-44
2022/08/09 06:23:28;;;;;;;3.60;1.77;;;;;;;;;;5084737;28;20215;-43
2022/08/09 06:26:16;;;;;;;7.80;2.28;;;;;;;;;;5084158;28;20250;-43
2022/08/09 06:28:50;;;;;;;4.60;1.92;;;;;;;;;;5084249;28;20219;-43
2022/08/09 06:31:28;;;;;;;4.35;2.03;;;;;;;;;;5083850;28;20529;-46
2022/08/09 06:34:06;;;;;;;3.92;2.05;;;;;;;;;;5084135;28;20234;-44
2022/08/09 06:36:35;;;;;;;3.33;1.80;;;;;;;;;;5084158;28;20230;-42
2022/08/09 06:39:02;;;;;;;5.40;2.28;;;;;;;;;;5087360;28;20306;-45
2022/08/09 06:41:38;;;;;;;6.13;2.10;;;;;;;;;;5086957;27;20225;-43
2022/08/09 06:44:25;;;;;;;3.72;2.20;;;;;;;;;;5086155;28;20238;-44
2022/08/09 06:46:52;;;;;;;3.95;2.00;;;;;;;;;;5082251;28;20227;-45
2022/08/09 06:49:22;;;;;;;4.35;2.05;;;;;;;;;;5082486;28;20207;-43
2022/08/09 06:52:10;;;;;;;5.10;1.52;;;;;;;;;;5087255;28;20266;-41
2022/08/09 06:54:38;;;;;;;3.92;2.00;;;;;;;;;;5093339;28;20257;-45
2022/08/09 06:57:07;;;;;;;4.70;1.75;;;;;;;;;;5080045;28;20215;-42
2022/08/09 06:59:37;;;;;;;4.65;2.33;;;;;;;;;;5083057;28;20669;-42
2022/08/09 07:02:24;;;;;;;3.92;1.70;;;;;;;;;;5073915;28;20399;-43
2022/08/09 07:04:59;;;;;;;2.72;1.90;;;;;;;;;;5074804;28;20689;-43
2022/08/09 07:07:26;;;;;;;1.85;1.52;;;;;;;;;;5078263;28;20219;-43
2022/08/09 07:10:14;;;;;;;3.30;1.60;;;;;;;;;;5074171;28;20230;-43
2022/08/09 07:12:57;;;;;;;5.65;1.70;;;;;;;;;;5072088;28;20593;-44
2022/08/09 07:15:25;;;;;;;1.85;1.63;;;;;;;;;;5074490;28;20238;-44
2022/08/09 07:18:12;;;;;;;2.80;1.67;;;;;;;;;;5074117;28;20226;-44
2022/08/09 07:20:41;;;;;;;4.10;1.70;;;;;;;;;;5073864;28;20223;-43
2022/08/09 07:23:11;;;;;;;5.35;1.50;;;;;;;;;;5080179;28;20227;-44
2022/08/09 07:25:47;;;;;;;3.08;1.80;;;;;;;;;;5077878;28;20214;-45
2022/08/09 07:28:19;;;;;;;6.25;1.60;;;;;;;;;;5074704;28;20239;-44
2022/08/09 07:30:54;;;;;;;3.63;1.30;;;;;;;;;;5075173;28;20235;-43
2022/08/09 07:33:21;;;;;;;4.45;1.67;;;;;;;;;;5074424;28;20682;-43
2022/08/09 07:35:49;;;;;;;5.18;1.55;;;;;;;;;;5074806;28;20223;-43
2022/08/09 07:38:20;;;;;;;2.25;1.45;;;;;;;;;;5074750;28;20224;-44
2022/08/09 07:40:49;;;;;;;1.60;1.40;;;;;;;;;;5085285;28;20227;-43
2022/08/09 07:43:37;;;;;;;2.42;1.60;;;;;;;;;;5095188;27;20219;-43
2022/08/09 07:46:15;;;;;;;2.17;1.55;;;;;;;;;;5095120;28;20214;-43
2022/08/09 07:48:46;;;;;;;3.92;1.70;;;;;;;;;;5095070;28;20326;-44
2022/08/09 07:51:26;;;;;;;4.43;1.55;;;;;;;;;;5094367;28;20210;-42
2022/08/09 07:54:14;;;;;;;6.00;1.55;;;;;;;;;;5094252;28;20195;-45
2022/08/09 07:56:44;;;;;;;2.78;1.38;;;;;;;;;;5095206;28;20195;-43
2022/08/09 07:59:19;;;;;;;3.05;1.55;;;;;;;;;;5095400;28;20251;-43
2022/08/09 08:02:01;;;;;;;2.95;1.40;;;;;;;;;;5095571;28;20277;-45
2022/08/09 08:04:28;;;;;;;3.55;1.30;;;;;;;;;;5095243;28;20590;-44
2022/08/09 08:06:57;;;;;;;1.83;1.30;;;;;;;;;;5095084;28;20649;-44
2022/08/09 08:09:26;;;;;;;3.67;1.52;;;;;;;;;;5095430;28;20515;-43
2022/08/09 08:12:11;;;;;;;2.63;1.35;;;;;;;;;;5095451;28;20218;-43
2022/08/09 08:14:55;;;;;;;2.03;1.30;;;;;;;;;;5095258;28;20201;-43
2022/08/09 08:17:23;;;;;;;4.43;1.30;;;;;;;;;;5095906;28;20207;-43
2022/08/09 08:20:10;;;;;;;2.45;1.50;;;;;;;;;;5095029;28;20191;-44
2022/08/09 08:22:39;;;;;;;3.03;1.30;;;;;;;;;;5094702;28;20271;-43
2022/08/09 08:25:08;;;;;;;17.30;1.95;;;;;;;;;;5095123;28;20203;-45
2022/08/09 08:27:40;;;;;;;8.02;1.45;;;;;;;;;;5094925;28;20194;-42
2022/08/09 08:30:10;;;;;;;2.25;1.40;;;;;;;;;;5094774;28;20218;-44
2022/08/09 08:32:38;;;;;;;3.05;1.42;;;;;;;;;;5095004;28;20218;-44
2022/08/09 08:35:20;;;;;;;2.53;1.30;;;;;;;;;;5095086;28;20198;-43
2022/08/09 08:37:49;;;;;;;4.53;1.45;;;;;;;;;;5094778;28;20198;-43
2022/08/09 08:40:31;;;;;;;1.88;1.20;;;;;;;;;;5075485;28;20187;-43
2022/08/09 08:43:00;;;;;;;1.98;1.27;;;;;;;;;;5074395;28;20223;-44
2022/08/09 08:45:44;;;;;;;7.30;1.30;;;;;;;;;;5073163;28;20199;-43
2022/08/09 08:48:31;;;;;;;1.92;1.10;;;;;;;;;;5073716;28;20209;-43
2022/08/09 08:50:59;;;;;;;4.22;1.60;;;;;;;;;;5074295;28;20195;-43
2022/08/09 08:53:25;;;;;;;1.70;1.13;;;;;;;;;;5073139;28;20673;-44
2022/08/09 08:56:04;;;;;;;5.07;1.25;;;;;;;;;;5059353;28;20241;-43
2022/08/09 08:58:32;;;;;;;3.38;1.45;;;;;;;;;;5073917;28;20204;-43
2022/08/09 09:01:02;;;;;;;1.98;0.98;;;;;;;;;;5074244;28;20203;-46
2022/08/09 09:03:46;;;;;;;2.67;1.33;;;;;;;;;;5074324;28;20256;-44
2022/08/09 09:06:17;;;;;;;2.88;1.13;;;;;;;;;;5074508;28;20258;-43
2022/08/09 09:08:45;;;;;;;3.13;1.17;;;;;;;;;;5074033;28;20260;-46
2022/08/09 09:11:19;;;;;;;2.55;1.17;;;;;;;;;;5073124;28;20187;-42
2022/08/09 09:13:48;;;;;;;3.95;1.50;;;;;;;;;;5073187;28;20199;-44
2022/08/09 09:16:27;;;;;;;6.32;1.45;;;;;;;;;;5073938;28;20633;-43
2022/08/09 09:19:05;;;;;;;5.15;1.38;;;;;;;;;;5073998;28;20195;-43
2022/08/09 09:21:58;;;;;;;2.05;1.40;;;;;;;;;;5057672;28;20300;-43
2022/08/09 09:24:31;;;;;;;4.20;1.13;;;;;;;;;;5074222;28;20199;-43
2022/08/09 09:27:02;;;;;;;7.47;1.40;;;;;;;;;;5074104;28;20199;-43
2022/08/09 09:29:38;;;;;;;3.53;1.25;;;;;;;;;;5073893;28;20249;-43
2022/08/09 09:32:28;;;;;;;1.63;1.20;;;;;;;;;;5073907;28;20235;-44
2022/08/09 09:35:09;;;;;;;3.47;1.30;;;;;;;;;;5077452;28;20202;-43
2022/08/09 09:37:39;;;;;;;4.93;1.45;;;;;;;;;;5077385;28;20603;-43
2022/08/09 09:40:08;;;;;;;4.70;1.35;;;;;;;;;;5077612;28;20222;-43
2022/08/09 09:42:37;;;;;;;3.33;1.27;;;;;;;;;;5069171;28;20532;-43
2022/08/09 09:45:07;;;;;;;4.97;1.33;;;;;;;;;;5076425;28;20214;-43
2022/08/09 09:47:45;;;;;;;4.82;1.55;;;;;;;;;;5090359;28;20633;-42
2022/08/09 09:50:44;;;;;;;2.53;1.17;;;;;;;;;;5080600;28;20257;-43
2022/08/09 09:53:19;;;;;;;3.95;1.00;;;;;;;;;;5091128;28;20661;-48
2022/08/09 09:55:51;;;;;;;4.65;1.20;;;;;;;;;;5077985;28;20210;-43
2022/08/09 09:58:45;;;;;;;1.63;1.10;;;;;;;;;;5076870;28;20666;-42
2022/08/09 10:01:20;;;;;;;5.38;1.40;;;;;;;;;;5077066;28;20195;-47
2022/08/09 10:04:17;;;;;;;3.47;1.40;;;;;;;;;;5062180;28;20209;-45
2022/08/09 10:06:56;;;;;;;5.03;1.70;;;;;;;;;;5077372;28;20192;-43
2022/08/09 10:09:24;;;;;;;15.27;2.20;;;;;;;;;;5077114;28;20278;-43
2022/08/09 10:12:01;;;;;;;2.67;1.20;;;;;;;;;;5077112;28;20212;-44
2022/08/09 10:14:40;;;;;;;2.92;1.17;;;;;;;;;;5076609;28;20187;-45
2022/08/09 10:17:15;;;;;;;2.00;1.30;;;;;;;;;;5076224;28;20184;-42
2022/08/09 10:20:21;;;;;;;2.72;1.27;;;;;;;;;;5076199;28;20196;-42
2022/08/09 10:22:59;;;;;;;3.53;1.27;;;;;;;;;;5076976;28;20214;-41
2022/08/09 10:25:27;;;;;;;1.88;1.23;;;;;;;;;;5074298;28;20203;-42
2022/08/09 10:28:14;;;;;;;1.75;1.13;;;;;;;;;;5075973;28;20291;-39
2022/08/09 10:30:45;;;;;;;3.38;1.25;;;;;;;;;;5070691;28;20219;-39
2022/08/09 10:33:34;;;;;;;5.15;1.20;;;;;;;;;;5073874;28;20650;-40
2022/08/09 10:36:21;;;;;;;2.10;1.17;;;;;;;;;;5075201;28;20231;-40
2022/08/09 10:38:48;;;;;;;1.52;1.25;;;;;;;;;;5073624;28;20223;-40
2022/08/09 10:41:26;;;;;;;2.33;0.98;;;;;;;;;;5074977;28;20234;-39
2022/08/09 10:43:54;;;;;;;2.70;0.98;;;;;;;;;;5071949;28;20231;-42
2022/08/09 10:46:39;;;;;;;2.40;1.30;;;;;;;;;;5072643;28;20223;-39
2022/08/09 10:49:30;;;;;;;6.63;1.30;;;;;;;;;;5075580;28;20606;-41
2022/08/09 10:52:33;;;;;;;1.52;1.00;;;;;;;;;;5074313;28;20239;-43
2022/08/09 10:55:19;;;;;;;2.58;1.00;;;;;;;;;;5074281;28;20237;-40
2022/08/09 10:57:49;;;;;;;2.15;1.10;;;;;;;;;;5074822;28;20234;-40
2022/08/09 11:00:30;;;;;;;1.65;1.10;;;;;;;;;;5074136;28;20238;-38
2022/08/09 11:02:57;;;;;;;2.25;1.20;;;;;;;;;;5075424;28;20295;-41
2022/08/09 11:06:17;;;;;;;2.40;1.30;;;;;;;;;;5077201;28;20326;-41
2022/08/09 11:08:46;;;;;;;2.03;1.40;;;;;;;;;;5073965;28;20312;-42
2022/08/09 11:11:19;;;;;;;3.05;1.40;;;;;;;;;;5073595;28;20280;-41
2022/08/09 11:14:24;;;;;;;7.32;1.55;;;;;;;;;;5075017;28;20693;-40
2022/08/09 11:16:55;;;;;;;4.20;1.67;;;;;;;;;;5073449;28;20219;-40
2022/08/09 11:19:48;;;;;;;23.58;1.92;;;;;;;;;;5080316;28;20696;-41
2022/08/09 11:22:38;;;;;;;41.53;2.50;;;;;;;;;;5074206;28;20227;-41
2022/08/09 11:25:18;;;;;;;10.32;1.85;;;;;;;;;;5074469;28;20673;-42
2022/08/09 11:27:53;;;;;;;29.17;1.90;;;;;;;;;;5079998;28;20210;-40
2022/08/09 11:30:40;;;;;;;48.42;2.45;;;;;;;;;;5078238;28;20238;-40
2022/08/09 11:33:16;;;;;;;12.68;1.90;;;;;;;;;;5086873;28;20230;-40
2022/08/09 11:35:57;;;;;;;2.15;1.40;;;;;;;;;;5082828;28;20230;-40
2022/08/09 11:38:26;;;;;;;1.60;1.30;;;;;;;;;;5074457;28;20224;-39
2022/08/09 11:41:15;;;;;;;3.80;1.20;;;;;;;;;;5074533;28;20226;-39
2022/08/09 11:43:47;;;;;;;4.53;1.67;;;;;;;;;;5074742;28;20219;-39
2022/08/09 11:46:15;;;;;;;3.05;1.60;;;;;;;;;;5087846;28;20219;-43
2022/08/09 11:49:00;;;;;;;5.15;1.27;;;;;;;;;;5090964;28;20276;-39
2022/08/09 11:52:03;;;;;;;2.40;1.55;;;;;;;;;;5094705;28;20661;-41
2022/08/09 11:55:28;;;;;;;4.05;1.20;;;;;;;;;;5082622;28;20215;-40
2022/08/09 11:58:15;;;;;;;4.88;1.42;;;;;;;;;;5051923;28;20548;-41
2022/08/09 12:00:59;;;;;;;1.50;1.20;;;;;;;;;;5082828;28;20230;-42
2022/08/09 12:03:28;;;;;;;2.85;1.67;;;;;;;;;;5082781;28;20227;-40
2022/08/09 12:06:18;;;;;;;3.38;1.60;;;;;;;;;;5079862;28;20599;-43
2022/08/09 12:08:59;;;;;;;16.35;1.83;;;;;;;;;;5075364;28;20191;-40
2022/08/09 12:11:27;;;;;;;9.45;1.70;;;;;;;;;;5054099;28;20231;-42
2022/08/09 12:13:57;;;;;;;3.50;1.20;;;;;;;;;;5054260;28;20224;-44
2022/08/09 12:16:41;;;;;;;3.08;1.65;;;;;;;;;;5065779;28;20245;-39
2022/08/09 12:19:10;;;;;;;2.55;1.20;;;;;;;;;;5074394;28;20237;-42
2022/08/09 12:21:39;;;;;;;3.22;1.60;;;;;;;;;;5083816;28;20264;-42
2022/08/09 12:24:22;;;;;;;3.63;1.35;;;;;;;;;;5094306;28;20237;-40
2022/08/09 12:26:51;;;;;;;1.92;1.20;;;;;;;;;;5094177;28;20267;-40
2022/08/09 12:29:39;;;;;;;3.42;1.55;;;;;;;;;;5094468;28;20191;-39
2022/08/09 12:32:24;;;;;;;3.17;1.70;;;;;;;;;;5089050;28;20222;-39
2022/08/09 12:34:59;;;;;;;2.92;1.50;;;;;;;;;;5094226;28;20190;-41
2022/08/09 12:37:38;;;;;;;3.08;1.50;;;;;;;;;;5094107;28;20654;-39
2022/08/09 12:40:19;;;;;;;4.60;1.30;;;;;;;;;;5094301;28;20186;-40
2022/08/09 12:42:46;;;;;;;4.53;1.38;;;;;;;;;;5087348;28;20199;-40
2022/08/09 12:45:17;;;;;;;4.20;1.63;;;;;;;;;;5053903;28;20192;-40
2022/08/09 12:48:07;;;;;;;5.28;1.85;;;;;;;;;;5052992;28;20526;-40
2022/08/09 12:50:51;;;;;;;2.50;1.80;;;;;;;;;;5053841;28;20602;-41
2022/08/09 12:53:32;;;;;;;2.95;1.70;;;;;;;;;;5053806;28;20242;-43
2022/08/09 12:56:14;;;;;;;4.70;2.20;;;;;;;;;;5053913;28;20208;-40
2022/08/09 12:59:10;;;;;;;8.63;2.20;;;;;;;;;;5056752;28;20208;-44
2022/08/09 13:01:45;;;;;;;5.60;1.90;;;;;;;;;;5080692;28;20281;-41
2022/08/09 13:04:17;;;;;;;2.60;1.77;;;;;;;;;;5092084;28;20214;-40
2022/08/09 13:07:17;;;;;;;6.20;2.40;;;;;;;;;;5092935;28;20214;-40
2022/08/09 13:10:03;;;;;;;6.65;1.77;;;;;;;;;;5098201;28;20516;-41
2022/08/09 13:12:30;;;;;;;6.40;2.10;;;;;;;;;;5097404;28;20225;-40
2022/08/09 13:15:06;;;;;;;5.32;2.00;;;;;;;;;;5098247;28;20206;-39
2022/08/09 13:17:33;;;;;;;8.20;2.05;;;;;;;;;;5085647;28;20285;-42
2022/08/09 13:20:36;;;;;;;3.67;2.08;;;;;;;;;;5075959;28;20256;-42
2022/08/09 13:23:40;;;;;;;6.97;2.05;;;;;;;;;;5076001;28;20203;-42
2022/08/09 13:26:52;;;;;;;4.45;1.60;;;;;;;;;;5076080;28;20214;-44
2022/08/09 13:29:20;;;;;;;2.83;1.90;;;;;;;;;;5087339;28;20572;-42
2022/08/09 13:32:08;;;;;;;8.32;2.60;;;;;;;;;;5084652;28;20188;-41
2022/08/09 13:34:52;;;;;;;3.15;2.13;;;;;;;;;;5084673;28;20244;-42
2022/08/09 13:37:19;;;;;;;3.60;1.77;;;;;;;;;;5085957;28;20206;-42
2022/08/09 13:40:08;;;;;;;5.60;1.75;;;;;;;;;;5071905;28;20218;-42
2022/08/09 13:42:55;;;;;;;5.63;2.10;;;;;;;;;;5080234;28;20292;-42
2022/08/09 13:45:22;;;;;;;2.80;1.63;;;;;;;;;;5074433;28;20231;-43
2022/08/09 13:48:09;;;;;;;3.42;1.80;;;;;;;;;;5084369;28;20291;-42
2022/08/09 13:50:36;;;;;;;2.38;1.45;;;;;;;;;;5078309;28;20436;-42
2022/08/09 13:53:04;;;;;;;7.00;1.85;;;;;;;;;;5075887;28;20565;-42
2022/08/09 13:55:33;;;;;;;3.65;2.00;;;;;;;;;;5075917;28;20230;-43
2022/08/09 13:58:03;;;;;;;12.13;2.22;;;;;;;;;;5076167;28;20309;-42
2022/08/09 14:00:37;;;;;;;3.40;1.63;;;;;;;;;;5080899;28;20549;-42
2022/08/09 14:03:19;;;;;;;3.25;1.55;;;;;;;;;;5084136;28;20239;-42
2022/08/09 14:06:10;;;;;;;4.15;1.60;;;;;;;;;;5082441;28;20235;-42
2022/08/09 14:08:52;;;;;;;3.22;1.50;;;;;;;;;;5075266;28;20265;-42
2022/08/09 14:11:19;;;;;;;2.63;1.52;;;;;;;;;;5075067;28;20235;-44
2022/08/09 14:13:46;;;;;;;3.92;1.40;;;;;;;;;;5072658;28;20235;-43
2022/08/09 14:16:33;;;;;;;3.95;1.65;;;;;;;;;;5076545;28;20234;-42
2022/08/09 14:19:02;;;;;;;7.35;1.40;;;;;;;;;;5059320;28;20302;-42
2022/08/09 14:21:30;;;;;;;2.30;1.67;;;;;;;;;;5076057;28;20227;-44
2022/08/09 14:23:58;;;;;;;4.45;1.30;;;;;;;;;;5076159;28;20533;-44
2022/08/09 14:26:31;;;;;;;4.68;1.33;;;;;;;;;;5074803;28;20227;-43
2022/08/09 14:29:04;;;;;;;3.08;1.42;;;;;;;;;;5057257;28;20237;-42
2022/08/09 14:31:52;;;;;;;7.03;1.70;;;;;;;;;;5073515;28;20681;-43
2022/08/09 14:34:24;;;;;;;2.00;1.40;;;;;;;;;;5074057;28;20561;-42
2022/08/09 14:36:58;;;;;;;4.07;1.50;;;;;;;;;;5075609;28;20311;-43
2022/08/09 14:39:25;;;;;;;4.53;1.55;;;;;;;;;;5076929;28;20288;-42
2022/08/09 14:42:12;;;;;;;6.13;1.60;;;;;;;;;;5095822;28;20551;-43
2022/08/09 14:45:01;;;;;;;2.28;1.50;;;;;;;;;;5095856;28;20257;-42
2022/08/09 14:47:48;;;;;;;3.15;1.33;;;;;;;;;;5096222;28;20309;-43
2022/08/09 14:50:29;;;;;;;11.68;2.17;;;;;;;;;;5095193;28;20222;-40
2022/08/09 14:52:58;;;;;;;5.43;1.52;;;;;;;;;;5095708;28;20309;-40
2022/08/09 14:55:26;;;;;;;4.40;1.38;;;;;;;;;;5091423;28;20230;-42
2022/08/09 14:58:00;;;;;;;3.03;1.20;;;;;;;;;;5074936;28;20215;-40
2022/08/09 15:00:30;;;;;;;8.30;1.30;;;;;;;;;;5075484;28;20223;-41
2022/08/09 15:03:00;;;;;;;3.25;1.48;;;;;;;;;;5075468;28;20236;-40
2022/08/09 15:05:29;;;;;;;4.63;1.27;;;;;;;;;;5075307;28;20247;-41
2022/08/09 15:07:57;;;;;;;3.97;1.33;;;;;;;;;;5080724;28;20665;-40
2022/08/09 15:10:25;;;;;;;4.88;1.48;;;;;;;;;;5096476;28;20202;-40
2022/08/09 15:12:53;;;;;;;5.68;1.50;;;;;;;;;;5096344;28;20199;-40
2022/08/09 15:15:21;;;;;;;4.90;1.40;;;;;;;;;;5096581;28;20202;-40
2022/08/09 15:17:48;;;;;;;3.35;1.58;;;;;;;;;;5096544;28;20238;-39
2022/08/09 15:20:20;;;;;;;3.72;1.55;;;;;;;;;;5096083;28;20214;-39
2022/08/09 15:23:07;;;;;;;3.22;1.58;;;;;;;;;;5096261;28;20206;-41
2022/08/09 15:25:56;;;;;;;3.15;1.70;;;;;;;;;;5094071;28;20194;-40
2022/08/09 15:28:23;;;;;;;3.78;2.15;;;;;;;;;;5096449;28;20194;-40
2022/08/09 15:30:55;;;;;;;3.28;1.60;;;;;;;;;;5095485;28;20236;-40
2022/08/09 15:33:41;;;;;;;6.22;1.80;;;;;;;;;;5095122;28;20688;-39
2022/08/09 15:36:28;;;;;;;3.92;1.95;;;;;;;;;;5095998;28;20621;-40
2022/08/09 15:38:57;;;;;;;5.10;2.00;;;;;;;;;;5095499;28;20206;-39